Friday, April 18, 2014
00:29 UTC
  |  Log In   |  Register Free
Airport Search:

Pedro Bay Airport
(4K0)

Pedro Bay Airport Diagram
No Airport Diagram Available

FAA data valid effective April 3, 2014 until May 29, 2014 (unless otherwise noted).

 
 
 
 
 
 
 
 
 
 
 
 
 
 

Current Aviation Weather for Pedro Bay Airport (4K0)

The most recent METAR observation for PAIL was updated at: 2353 UTC
METAR Summary (Translated METAR)
PAIL
172353Z 18007KT 10SM SCT033 SCT055 BKN095 08/01 A2938 RMK AO2 SLP952 T00780006 10083 20028 56015
PAIG
(39.7 nm SW from PAIL)
172356Z AUTO 05005KT 10SM CLR 04/01 A2937 RMK AO2 TSNO 58018 60000 T00380005 10038 21005 SLP950 $
TAF Summary (Translated TAF)
PAIL
171739Z 1718/1818 VRB05KT P6SM BKN070 FM181400 VRB04KT P6SM -RA OVC025
  Airport Weather Conditions for 4K0

Current weather conditions are
not available for 4K0


The nearest NOAA weather station
is at ILI, (23.7 nm SW from 4K0)
  
 Current Weather at ILI
46° F
Mostly Cloudy
South winds at 8.1 mph
ILI NOAA Radar

Pressure: 29.38 in
Humidity: 61%
Wind: South at 8.1 MPH (7 KT)
Dew Point: 33.1°F
Visibility: 10.00 mi


Airport Weather Forecast for 4K0

Translated METAR and TAF for PAIL
Translated METAR for PAIL (0029 UTC 18 April 2014)
found at http://aviationweather.gov/adds/metars/
 
METAR text: PAIL 172353Z 18007KT 10SM SCT033 SCT055 BKN095 08/01 A2938 RMK AO2 SLP952 T00780006 10083 20028 56015
Conditions at: PAIL (ILIAMNA , AK, US) observed 2353 UTC 17 April 2014
Temperature: 7.8°C (46°F)
Dewpoint: 0.6°C (33°F) [RH = 60%]
Pressure (altimeter): 29.38 inches Hg (995.0 mb)
[Sea-level pressure: 995.2 mb]
Winds: from the S (180 degrees) at 8 MPH (7 knots; 3.6 m/s)
Visibility: 10 or more miles (16+ km)
Ceiling: 9500 feet AGL
Clouds: scattered clouds at 3300 feet AGL
scattered clouds at 5500 feet AGL
broken clouds at 9500 feet AGL
Weather: no significant weather observed at this time
Translated TAF for PAIL
Forecast for: PAIL (ILIAMNA , AK, US)
TAF Text: PAIL 172333Z 1800/1824 VRB05KT P6SM VCSH SCT035 BKN060
Forecast period: 0000 to 1400 UTC 18 April 2014
Forecast type: FROM: standard forecast or significant change
Winds: variable direction winds at 6 MPH (5 knots; 2.6 m/s)
Visibility: 6 or more miles (10+ km)
Ceiling: 6000 feet AGL
Clouds: scattered clouds at 3500 feet AGL
broken clouds at 6000 feet AGL
Weather: VCSH  (showers in vicinity)
TAF Text: FM181400 VRB04KT P6SM -SHRA OVC025
Forecast period: 1400 to 2000 UTC 18 April 2014
Forecast type: FROM: standard forecast or significant change
Winds: variable direction winds at 5 MPH (4 knots; 2.1 m/s)
Visibility: 6 or more miles (10+ km)
Ceiling: 2500 feet AGL
Clouds: overcast cloud deck at 2500 feet AGL
Weather: -SHRA  (light rain showers)
TAF Text: FM182000 10012G22KT P6SM SCT030 BKN060
Forecast period: 2000 UTC 18 April 2014 to 0000 UTC 19 April 2014
Forecast type: FROM: standard forecast or significant change
Winds: from the E (100 degrees) at 14 MPH (12 knots; 6.2 m/s)
gusting to 25 MPH (22 knots; 11.4 m/s)
Visibility: 6 or more miles (10+ km)
Ceiling: 6000 feet AGL
Clouds: scattered clouds at 3000 feet AGL
broken clouds at 6000 feet AGL
Weather: no significant weather forecast for this period

Find All Airport Services Find A Hotel Find A Rental Car Find A Golf Course Find A Restaurant $100 Hamburger



FBO's on the Field
FBO Company Facility Photos Services Transportation Aviation Fuel Prices: Prices include tax
Catering Weather Repair Courtesy Rental Type 100LL JetA JetA+ MOGAS 8087
 
Add another FBO Facility Photos Catering Weather Repair Courtesy Rental Type 100LL JetA JetA+ MOGAS 8087
Services Transportation Aviation Fuel Prices: Prices include tax
There are no FBO's currently reporting fuel at 4K0. List your FBO now


GlobalAir.com Airport Resource Center model-print
model-print
model-print
model-print